createdAt,value
2019-05-18T00:02:30.253Z,30.50
2019-05-18T00:04:59.607Z,23.43
2019-05-18T00:07:28.940Z,19.03
2019-05-18T00:09:58.279Z,17.50
2019-05-18T00:12:46.964Z,21.20
2019-05-18T00:15:16.436Z,19.43
2019-05-18T00:18:11.033Z,19.80
2019-05-18T00:20:52.472Z,17.80
2019-05-18T00:23:33.739Z,19.97
2019-05-18T00:26:15.378Z,20.93
2019-05-18T00:28:57.363Z,17.00
2019-05-18T00:31:26.697Z,19.03
2019-05-18T00:33:56.036Z,22.03
2019-05-18T00:36:37.938Z,21.97
2019-05-18T00:39:19.432Z,19.93
2019-05-18T00:41:48.784Z,14.80
2019-05-18T00:44:37.463Z,18.83
2019-05-18T00:47:18.452Z,22.90
2019-05-18T00:50:00.677Z,19.07
2019-05-18T00:52:42.399Z,19.80
2019-05-18T00:55:12.132Z,22.83
2019-05-18T00:57:41.477Z,16.03
2019-05-18T01:03:32.459Z,18.00
2019-05-18T01:06:01.824Z,15.20
2019-05-18T01:08:31.182Z,19.70
2019-05-18T01:11:20.076Z,18.90
2019-05-18T01:14:01.159Z,16.33
2019-05-18T01:16:30.490Z,17.47
2019-05-18T01:19:19.460Z,17.53
2019-05-18T01:21:48.801Z,19.23
2019-05-18T01:24:18.140Z,26.67
2019-05-18T01:26:59.552Z,21.60
2019-05-18T01:29:28.890Z,31.10
2019-05-18T01:32:17.353Z,29.23
2019-05-18T01:34:46.698Z,23.60
2019-05-18T01:37:16.035Z,23.03
2019-05-18T01:39:45.385Z,27.27
2019-05-18T01:42:14.749Z,25.50
2019-05-18T01:44:56.925Z,27.03
2019-05-18T01:47:38.021Z,30.13
2019-05-18T01:50:19.177Z,24.93
2019-05-18T01:53:00.315Z,25.83
2019-05-18T01:55:29.656Z,22.50
2019-05-18T01:58:10.861Z,23.03
2019-05-18T02:00:40.215Z,23.73
2019-05-18T02:03:09.561Z,22.33
2019-05-18T02:05:51.541Z,22.57
2019-05-18T02:08:32.997Z,25.10
2019-05-18T02:11:02.375Z,22.03
2019-05-18T02:13:32.017Z,29.30
2019-05-18T02:16:01.373Z,22.17
2019-05-18T02:18:50.053Z,20.80
2019-05-18T02:21:19.404Z,21.00
2019-05-18T02:24:08.094Z,23.50
2019-05-18T02:26:49.506Z,19.80
2019-05-18T02:29:30.965Z,21.60
2019-05-18T02:32:00.319Z,22.10
2019-05-18T02:34:48.998Z,24.87
2019-05-18T02:37:30.224Z,19.87
2019-05-18T02:40:11.322Z,19.17
2019-05-18T02:42:40.750Z,22.37
2019-05-18T02:45:29.473Z,19.80
2019-05-18T02:47:58.824Z,21.47
2019-05-18T02:50:47.253Z,19.83
2019-05-18T02:53:29.405Z,20.37
2019-05-18T02:55:58.715Z,18.37
2019-05-18T02:58:39.913Z,16.83
2019-05-18T03:01:09.242Z,18.80
2019-05-18T03:03:57.964Z,18.73
2019-05-18T03:06:39.065Z,19.53
2019-05-18T03:09:08.483Z,15.80
2019-05-18T03:11:37.885Z,15.50
2019-05-18T03:14:07.226Z,17.93
2019-05-18T03:16:55.916Z,15.03
2019-05-18T03:19:44.596Z,23.03
2019-05-18T03:22:31.455Z,20.40
2019-05-18T03:25:00.802Z,15.20
2019-05-18T03:27:30.146Z,17.63
2019-05-18T03:29:59.521Z,17.53
2019-05-18T03:32:28.850Z,15.40
2019-05-18T03:34:58.192Z,17.10
2019-05-18T03:37:27.542Z,16.17
2019-05-18T03:39:56.878Z,16.87
2019-05-18T03:42:26.226Z,18.67
2019-05-18T03:44:55.587Z,15.17
2019-05-18T03:47:24.910Z,14.37
2019-05-18T03:49:55.030Z,17.83
2019-05-18T03:52:24.654Z,16.17
2019-05-18T03:54:53.996Z,17.77
2019-05-18T03:57:23.348Z,16.20
2019-05-18T03:59:52.984Z,19.03
2019-05-18T04:02:22.329Z,15.13
2019-05-18T04:04:51.677Z,15.40
2019-05-18T04:07:21.016Z,19.10
2019-05-18T04:09:50.352Z,17.07
2019-05-18T04:12:19.706Z,19.23
2019-05-18T04:14:49.036Z,16.07
2019-05-18T04:17:18.441Z,19.63
2019-05-18T04:19:47.813Z,23.33
2019-05-18T04:22:17.294Z,22.30
2019-05-18T04:24:46.637Z,14.90
2019-05-18T04:27:16.030Z,17.33
2019-05-18T04:29:45.366Z,18.63
2019-05-18T04:32:14.731Z,33.77
2019-05-18T04:34:44.081Z,35.73
2019-05-18T04:37:14.402Z,42.20
2019-05-18T04:39:43.756Z,37.60
2019-05-18T04:42:13.453Z,27.10
2019-05-18T04:44:42.765Z,40.13
2019-05-18T04:47:12.126Z,43.13
2019-05-18T04:49:41.374Z,43.67
2019-05-18T04:52:10.727Z,30.77
2019-05-18T04:54:40.143Z,35.73
2019-05-18T04:57:09.733Z,26.77
2019-05-18T04:59:39.081Z,28.60
2019-05-18T05:02:08.434Z,46.30
2019-05-18T05:04:37.756Z,28.13
2019-05-18T05:07:07.109Z,35.80
2019-05-18T05:09:36.440Z,57.87
2019-05-18T05:12:05.936Z,39.23
2019-05-18T05:14:35.276Z,28.93
2019-05-18T05:17:04.622Z,27.80
2019-05-18T05:19:33.965Z,26.40
2019-05-18T05:22:03.322Z,25.93
2019-05-18T05:24:32.871Z,34.10
2019-05-18T05:27:02.213Z,27.97
2019-05-18T05:29:31.574Z,32.43
2019-05-18T05:32:00.907Z,18.90
2019-05-18T05:34:30.237Z,28.80
2019-05-18T05:36:59.616Z,22.53
2019-05-18T05:39:28.948Z,22.37
2019-05-18T05:41:58.282Z,20.07
2019-05-18T05:44:27.640Z,22.77
2019-05-18T05:46:56.975Z,25.50
2019-05-18T05:49:26.382Z,25.63
2019-05-18T05:51:55.732Z,22.07
2019-05-18T05:54:25.069Z,19.40
2019-05-18T05:56:54.404Z,19.67
2019-05-18T05:59:23.760Z,24.30
2019-05-18T06:01:53.100Z,20.80
2019-05-18T06:04:22.437Z,24.90
2019-05-18T06:06:51.788Z,20.77
2019-05-18T06:09:21.131Z,22.03
2019-05-18T06:11:50.473Z,29.97
2019-05-18T06:14:19.871Z,31.77
2019-05-18T06:16:49.538Z,21.80
2019-05-18T06:19:18.875Z,22.33
2019-05-18T06:21:48.330Z,24.70
2019-05-18T06:24:17.682Z,18.80
2019-05-18T06:26:47.054Z,19.77
2019-05-18T06:29:16.388Z,22.80
2019-05-18T06:31:45.774Z,25.50
2019-05-18T06:34:15.099Z,21.43
2019-05-18T06:36:44.438Z,23.37
2019-05-18T06:39:13.776Z,24.03
2019-05-18T06:41:43.128Z,26.20
2019-05-18T06:44:12.453Z,19.07
2019-05-18T06:46:41.786Z,21.50
2019-05-18T06:49:11.131Z,21.60
2019-05-18T06:51:40.462Z,20.97
2019-05-18T06:54:09.863Z,24.63
2019-05-18T06:56:40.447Z,26.63
2019-05-18T06:59:10.518Z,19.63
2019-05-18T07:01:39.868Z,20.23
2019-05-18T07:04:09.484Z,22.57
2019-05-18T07:06:38.816Z,27.10
2019-05-18T07:09:13.784Z,24.77
2019-05-18T07:11:39.750Z,27.23
2019-05-18T07:14:09.195Z,24.23
2019-05-18T07:16:38.932Z,17.63
2019-05-18T07:19:08.277Z,25.40
2019-05-18T07:21:37.618Z,19.60
2019-05-18T07:24:06.968Z,21.03
2019-05-18T07:26:36.665Z,29.70
2019-05-18T07:29:07.881Z,25.50
2019-05-18T07:31:37.476Z,30.40
2019-05-18T07:34:06.785Z,25.20
2019-05-18T07:36:36.125Z,26.13
2019-05-18T07:39:06.893Z,25.57
2019-05-18T07:41:46.238Z,29.63
2019-05-18T07:44:07.599Z,22.53
2019-05-18T07:46:36.949Z,32.70
2019-05-18T07:49:06.291Z,32.63
2019-05-18T07:51:37.366Z,25.60
2019-05-18T07:54:06.876Z,29.13
2019-05-18T07:56:36.221Z,27.40
2019-05-18T07:59:05.557Z,29.53
2019-05-18T08:01:34.888Z,25.57
2019-05-18T08:04:04.277Z,31.47
2019-05-18T08:06:34.067Z,25.93
2019-05-18T08:09:04.800Z,32.77
2019-05-18T08:11:34.133Z,23.87
2019-05-18T08:14:03.487Z,25.63
2019-05-18T08:16:32.812Z,22.60
2019-05-18T08:19:02.156Z,25.83
2019-05-18T08:21:31.519Z,25.90
2019-05-18T08:24:00.848Z,30.90
2019-05-18T08:26:30.181Z,25.30
2019-05-18T08:28:59.517Z,27.93
2019-05-18T08:31:31.128Z,29.23
2019-05-18T08:34:07.104Z,26.57
2019-05-18T08:36:36.568Z,28.67
2019-05-18T08:39:06.514Z,24.43
2019-05-18T08:41:35.890Z,25.40
2019-05-18T08:44:05.288Z,26.43
2019-05-18T08:46:34.623Z,27.90
2019-05-18T08:49:04.039Z,34.00
2019-05-18T08:51:34.455Z,34.33
2019-05-18T08:54:03.810Z,29.30
2019-05-18T08:56:33.136Z,43.70
2019-05-18T08:59:02.485Z,31.10
2019-05-18T09:01:31.824Z,33.03
2019-05-18T09:04:01.177Z,29.03
2019-05-18T09:06:30.574Z,46.13
2019-05-18T09:09:00.228Z,37.23
2019-05-18T09:11:29.728Z,33.87
2019-05-18T09:13:59.068Z,34.43
2019-05-18T09:16:28.422Z,30.90
2019-05-18T09:18:57.755Z,29.40
2019-05-18T09:21:27.102Z,27.40
2019-05-18T09:23:56.428Z,27.80
2019-05-18T09:26:25.711Z,27.93
2019-05-18T09:28:55.040Z,28.37
2019-05-18T09:31:24.369Z,32.93
2019-05-18T09:33:53.719Z,23.00
2019-05-18T09:36:23.117Z,40.23
2019-05-18T09:38:52.477Z,27.87
2019-05-18T09:41:22.046Z,26.83
2019-05-18T09:43:51.409Z,31.00
2019-05-18T09:46:20.717Z,25.13
2019-05-18T09:48:50.051Z,22.07
2019-05-18T09:51:19.391Z,31.43
2019-05-18T09:53:51.648Z,27.87
2019-05-18T09:56:38.858Z,23.47
2019-05-18T09:59:08.206Z,25.33
2019-05-18T10:01:37.544Z,28.97
2019-05-18T10:04:06.888Z,29.90
2019-05-18T10:06:36.218Z,24.30
2019-05-18T10:09:08.106Z,29.73
2019-05-18T10:11:38.603Z,31.63
2019-05-18T10:14:08.247Z,28.27
2019-05-18T10:16:37.576Z,29.03
2019-05-18T10:19:06.912Z,27.63
2019-05-18T10:21:36.260Z,29.17
2019-05-18T10:24:05.596Z,31.83
2019-05-18T10:26:35.202Z,23.33
2019-05-18T10:29:04.614Z,30.20
2019-05-18T10:31:33.943Z,34.30
2019-05-18T10:34:03.393Z,26.10
2019-05-18T10:36:32.738Z,27.63
2019-05-18T10:39:02.327Z,26.70
2019-05-18T10:41:31.931Z,23.63
2019-05-18T10:44:01.276Z,25.50
2019-05-18T10:46:30.605Z,27.37
2019-05-18T10:48:59.935Z,27.13
2019-05-18T10:51:29.279Z,21.03
2019-05-18T10:53:58.618Z,24.90
2019-05-18T10:56:31.124Z,23.27
2019-05-18T10:58:58.996Z,26.03
2019-05-18T11:01:28.331Z,26.43
2019-05-18T11:03:57.663Z,20.50
2019-05-18T11:06:27.016Z,18.07
2019-05-18T11:08:56.344Z,17.50
2019-05-18T11:11:25.677Z,18.63
2019-05-18T11:13:55.040Z,18.50
2019-05-18T11:16:24.353Z,20.60
2019-05-18T11:18:53.689Z,18.93
2019-05-18T11:21:23.033Z,18.23
2019-05-18T11:23:52.375Z,19.37
2019-05-18T11:26:21.700Z,19.70
2019-05-18T11:28:51.046Z,19.80
2019-05-18T11:31:20.700Z,17.20
2019-05-18T11:33:50.031Z,18.97
2019-05-18T11:36:19.472Z,17.20
2019-05-18T11:38:48.875Z,13.63
2019-05-18T11:41:18.207Z,14.30
2019-05-18T11:43:47.553Z,17.20
2019-05-18T11:46:16.885Z,14.50
2019-05-18T11:48:46.223Z,17.43
2019-05-18T11:51:15.571Z,21.80
2019-05-18T11:53:57.460Z,21.70
2019-05-18T11:56:15.928Z,17.00
2019-05-18T11:58:45.276Z,14.23
2019-05-18T12:01:14.609Z,14.37
2019-05-18T12:03:43.946Z,14.83
2019-05-18T12:06:13.298Z,18.13
2019-05-18T12:08:42.636Z,19.07
2019-05-18T12:11:11.968Z,19.37
2019-05-18T12:13:41.571Z,23.67
2019-05-18T12:16:10.907Z,16.10
2019-05-18T12:18:40.234Z,15.67
2019-05-18T12:21:10.021Z,17.30
2019-05-18T12:23:39.339Z,16.40
2019-05-18T12:26:08.672Z,14.43
2019-05-18T12:28:38.075Z,11.37
2019-05-18T12:31:07.413Z,11.40
2019-05-18T12:33:36.747Z,12.80
2019-05-18T12:36:07.836Z,13.33
2019-05-18T12:38:37.181Z,11.53
2019-05-18T12:41:06.520Z,16.13
2019-05-18T12:43:35.994Z,14.83
2019-05-18T12:46:05.281Z,12.10
2019-05-18T12:48:34.998Z,12.30
2019-05-18T12:51:04.374Z,13.53
2019-05-18T12:53:33.707Z,13.77
2019-05-18T12:56:03.047Z,14.37
2019-05-18T12:58:32.375Z,14.43
2019-05-18T13:01:01.782Z,13.43
2019-05-18T13:03:31.055Z,14.30
2019-05-18T13:06:00.943Z,13.57
2019-05-18T13:08:30.289Z,14.13
2019-05-18T13:10:59.623Z,14.77
2019-05-18T13:13:28.979Z,19.43
2019-05-18T13:15:58.323Z,16.80
2019-05-18T13:18:29.360Z,26.77
2019-05-18T13:20:58.704Z,16.03
2019-05-18T13:23:28.034Z,11.77
2019-05-18T13:25:57.368Z,11.00
2019-05-18T13:28:26.775Z,9.37
2019-05-18T13:30:56.693Z,20.40
2019-05-18T13:33:26.401Z,12.97
2019-05-18T13:35:56.213Z,8.60
2019-05-18T13:38:25.530Z,8.10
2019-05-18T13:40:56.701Z,9.70
2019-05-18T13:43:26.091Z,7.27
2019-05-18T13:45:55.432Z,6.50
2019-05-18T13:48:24.746Z,6.83
2019-05-18T13:50:54.064Z,6.70
2019-05-18T13:53:23.399Z,8.07
2019-05-18T13:55:52.730Z,14.03
2019-05-18T13:58:23.707Z,7.50
2019-05-18T14:00:53.365Z,6.70
2019-05-18T14:03:22.685Z,6.53
2019-05-18T14:05:52.017Z,5.97
2019-05-18T14:08:21.335Z,5.80
2019-05-18T14:10:50.658Z,8.03
2019-05-18T14:13:19.996Z,6.40
2019-05-18T14:15:49.327Z,7.80
2019-05-18T14:18:18.654Z,8.13
2019-05-18T14:20:47.985Z,9.43
2019-05-18T14:23:17.308Z,7.80
2019-05-18T14:25:46.629Z,10.73
2019-05-18T14:28:15.978Z,10.83
2019-05-18T14:30:45.367Z,6.30
2019-05-18T14:33:14.691Z,7.20
2019-05-18T14:35:44.017Z,8.53
2019-05-18T14:38:13.349Z,6.97
2019-05-18T14:40:42.673Z,10.80
2019-05-18T14:43:12.282Z,7.97
2019-05-18T14:45:41.899Z,7.37
2019-05-18T14:48:11.226Z,7.70
2019-05-18T14:50:40.639Z,6.97
2019-05-18T14:53:09.948Z,8.73
2019-05-18T14:55:39.584Z,12.37
2019-05-18T14:58:08.931Z,9.67
2019-05-18T15:00:39.512Z,9.63
2019-05-18T15:03:10.586Z,10.43
2019-05-18T15:05:39.914Z,5.87
2019-05-18T15:08:09.912Z,9.10
2019-05-18T15:10:39.252Z,15.10
2019-05-18T15:13:08.578Z,7.80
2019-05-18T15:15:37.918Z,7.30
2019-05-18T15:18:07.312Z,7.83
2019-05-18T15:20:36.592Z,11.43
2019-05-18T15:23:05.915Z,7.20
2019-05-18T15:25:49.616Z,9.63
2019-05-18T15:28:06.531Z,12.20
2019-05-18T15:30:35.931Z,7.80
2019-05-18T15:33:05.301Z,9.03
2019-05-18T15:35:34.599Z,7.10
2019-05-18T15:38:03.929Z,10.90
2019-05-18T15:40:33.296Z,11.43
2019-05-18T15:43:02.598Z,8.90
2019-05-18T15:45:31.925Z,9.93
2019-05-18T15:48:01.329Z,9.60
2019-05-18T15:50:30.984Z,11.00
2019-05-18T15:53:00.331Z,11.43
2019-05-18T15:55:29.668Z,37.33
2019-05-18T15:57:59.003Z,9.50
2019-05-18T16:00:28.418Z,13.27
2019-05-18T16:02:57.988Z,13.83
2019-05-18T16:05:27.341Z,29.07
2019-05-18T16:07:56.675Z,10.60
2019-05-18T16:10:26.147Z,8.70
2019-05-18T16:12:55.489Z,10.43
2019-05-18T16:15:24.899Z,15.00
2019-05-18T16:17:54.244Z,13.13
2019-05-18T16:20:23.955Z,8.80
2019-05-18T16:22:53.333Z,7.87
2019-05-18T16:28:24.926Z,14.80
2019-05-18T16:30:54.269Z,8.87
2019-05-18T16:33:23.593Z,11.60
2019-05-18T16:35:52.931Z,11.23
2019-05-18T16:38:22.260Z,13.30
2019-05-18T16:40:51.955Z,11.93
2019-05-18T16:43:21.275Z,13.30
2019-05-18T16:45:50.639Z,12.57
2019-05-18T16:48:19.969Z,12.67
2019-05-18T16:50:49.317Z,12.00
2019-05-18T16:53:18.883Z,8.73
2019-05-18T16:55:48.240Z,12.47
2019-05-18T16:58:17.595Z,12.27
2019-05-18T17:00:46.909Z,11.23
2019-05-18T17:03:16.240Z,10.20
2019-05-18T17:05:45.578Z,8.17
2019-05-18T17:08:14.898Z,9.00
2019-05-18T17:10:44.235Z,16.30
2019-05-18T17:13:13.570Z,14.30
2019-05-18T17:18:57.993Z,14.13
2019-05-18T17:21:27.336Z,13.07
2019-05-18T17:23:56.694Z,11.10
2019-05-18T17:26:26.253Z,13.40
2019-05-18T17:28:55.648Z,10.57
2019-05-18T17:31:24.984Z,10.00
2019-05-18T17:33:54.306Z,12.10
2019-05-18T17:36:23.899Z,13.90
2019-05-18T17:39:12.314Z,9.03
2019-05-18T17:41:41.652Z,12.50
2019-05-18T17:44:10.979Z,10.57
2019-05-18T17:46:40.305Z,7.50
2019-05-18T17:49:24.624Z,7.97
2019-05-18T17:51:50.234Z,13.63
2019-05-18T17:54:19.559Z,8.47
2019-05-18T17:57:07.550Z,7.43
2019-05-18T17:59:25.568Z,12.47
2019-05-18T18:01:54.889Z,9.20
2019-05-18T18:04:24.213Z,9.47
2019-05-18T18:06:53.565Z,8.53
2019-05-18T18:09:22.894Z,10.80
2019-05-18T18:11:52.233Z,9.83
2019-05-18T18:14:21.556Z,7.77
2019-05-18T18:16:50.878Z,13.33
2019-05-18T18:19:20.213Z,11.63
2019-05-18T18:21:49.538Z,23.70
2019-05-18T18:24:18.871Z,19.97
2019-05-18T18:26:48.190Z,9.63
2019-05-18T18:29:17.538Z,13.97
2019-05-18T18:31:46.865Z,28.17
2019-05-18T18:34:16.206Z,112.97
2019-05-18T18:36:45.544Z,20.00
2019-05-18T18:39:14.876Z,25.40
2019-05-18T18:41:44.224Z,16.47
2019-05-18T18:44:13.550Z,10.93
2019-05-18T18:46:42.945Z,10.50
2019-05-18T18:49:12.286Z,28.90
2019-05-18T18:51:41.626Z,25.13
2019-05-18T18:54:12.786Z,13.87
2019-05-18T18:57:01.088Z,13.03
2019-05-18T18:59:30.435Z,13.07
2019-05-18T19:01:59.769Z,13.60
2019-05-18T19:04:41.381Z,15.23
2019-05-18T19:07:10.714Z,12.97
2019-05-18T19:09:40.049Z,18.43
2019-05-18T19:12:09.398Z,15.77
2019-05-18T19:14:38.723Z,16.73
2019-05-18T19:17:08.070Z,11.87
2019-05-18T19:19:40.157Z,11.13
2019-05-18T19:22:13.727Z,12.70
2019-05-18T19:24:43.064Z,15.03
2019-05-18T19:27:12.408Z,12.43
2019-05-18T19:29:41.744Z,16.43
2019-05-18T19:32:11.077Z,11.63
2019-05-18T19:34:40.432Z,14.97
2019-05-18T19:37:09.775Z,11.30
2019-05-18T19:39:58.456Z,11.33
2019-05-18T19:42:35.120Z,12.23
2019-05-18T19:48:05.915Z,16.53
2019-05-18T19:50:47.693Z,16.33
2019-05-18T19:53:17.063Z,21.20
2019-05-18T19:56:05.725Z,15.30
2019-05-18T19:58:35.091Z,11.07
2019-05-18T20:01:04.447Z,10.87
2019-05-18T20:03:33.786Z,13.00
2019-05-18T20:12:07.012Z,10.03
2019-05-18T20:14:36.353Z,10.03
2019-05-18T20:17:05.717Z,9.73
2019-05-18T20:19:39.110Z,10.63
2019-05-18T20:22:15.488Z,9.67
2019-05-18T20:24:45.063Z,10.00
2019-05-18T20:27:14.382Z,9.43
2019-05-18T20:29:43.723Z,10.40
2019-05-18T20:32:13.048Z,9.30
2019-05-18T20:34:42.703Z,8.70
2019-05-18T20:37:12.311Z,11.90
2019-05-18T20:39:41.647Z,11.33
2019-05-18T20:42:10.982Z,8.83
2019-05-18T20:44:40.299Z,8.90
2019-05-18T20:47:09.630Z,8.17
2019-05-18T20:49:38.962Z,8.20
2019-05-18T20:52:08.508Z,9.13
2019-05-18T20:54:37.831Z,10.57
2019-05-18T20:57:07.166Z,10.13
2019-05-18T20:59:55.848Z,8.83
2019-05-18T21:02:25.211Z,8.27
2019-05-18T21:04:54.794Z,10.40
2019-05-18T21:07:24.118Z,9.93
2019-05-18T21:09:53.467Z,10.17
2019-05-18T21:12:34.968Z,11.30
2019-05-18T21:15:16.148Z,16.90
2019-05-18T21:17:45.481Z,16.70
2019-05-18T21:20:14.829Z,15.70
2019-05-18T21:22:44.168Z,16.93
2019-05-18T21:25:13.510Z,15.70
2019-05-18T21:27:42.859Z,24.50
2019-05-18T21:33:46.200Z,18.40
2019-05-18T21:36:27.651Z,15.00
2019-05-18T21:38:56.997Z,19.63
2019-05-18T21:41:26.346Z,16.10
2019-05-18T21:43:55.681Z,17.60
2019-05-18T21:46:44.365Z,14.83
2019-05-18T21:49:13.697Z,17.30
2019-05-18T21:52:08.271Z,18.27
2019-05-18T21:54:39.282Z,17.87
2019-05-18T21:57:20.346Z,18.50
2019-05-18T21:59:49.681Z,19.60
2019-05-18T22:02:19.023Z,23.70
2019-05-18T22:05:00.277Z,18.97
2019-05-18T22:07:29.685Z,17.37
2019-05-18T22:09:59.335Z,19.10
2019-05-18T22:12:41.308Z,16.57
2019-05-18T22:15:23.599Z,20.90
2019-05-18T22:18:23.705Z,19.53
2019-05-18T22:21:08.555Z,14.80
2019-05-18T22:23:49.680Z,17.60
2019-05-18T22:26:19.031Z,19.80
2019-05-18T22:28:48.369Z,18.30
2019-05-18T22:31:29.719Z,16.53
2019-05-18T22:33:59.051Z,17.80
2019-05-18T22:36:28.389Z,16.30
2019-05-18T22:38:57.970Z,16.97
2019-05-18T22:41:27.306Z,14.57
2019-05-18T22:43:56.648Z,16.97
2019-05-18T22:46:25.984Z,13.40
2019-05-18T22:48:55.340Z,15.70
2019-05-18T22:51:24.673Z,13.40
2019-05-18T22:53:54.081Z,13.63
2019-05-18T22:56:23.431Z,13.53
2019-05-18T22:58:52.771Z,12.80
2019-05-18T23:01:22.133Z,15.70
2019-05-18T23:03:51.855Z,14.20
2019-05-18T23:06:21.187Z,15.17
2019-05-18T23:08:50.529Z,15.83
2019-05-18T23:11:19.889Z,14.13
2019-05-18T23:13:49.208Z,20.93
2019-05-18T23:16:18.610Z,15.83
2019-05-18T23:18:56.360Z,13.93
2019-05-18T23:21:18.995Z,15.93
2019-05-18T23:23:48.346Z,20.97
2019-05-18T23:26:17.700Z,13.93
2019-05-18T23:28:47.038Z,11.13
2019-05-18T23:31:16.621Z,11.77
2019-05-18T23:33:45.958Z,12.73
2019-05-18T23:36:15.324Z,13.33
2019-05-18T23:38:44.656Z,10.40
2019-05-18T23:41:13.993Z,12.20
2019-05-18T23:43:43.422Z,11.17
2019-05-18T23:46:12.748Z,12.03
2019-05-18T23:48:42.334Z,11.33
2019-05-18T23:51:11.668Z,14.10
2019-05-18T23:53:41.001Z,17.40
2019-05-18T23:56:10.452Z,17.87
2019-05-18T23:58:39.794Z,14.43
